Time;durP1;ratioP1;P1;durP2;ratioP2;P2;SDS_P1;SDS_P2;PMS_P1;PMS_P2;Temp;Humidity;BMP_temperature;BMP_pressure;BME280_temperature;BME280_humidity;BME280_pressure;Samples;Min_cycle;Max_cycle;Signal;HPM_P1;HPM_P2
2022/04/23 00:01:53;;;;;;;1.98;1.25;;;;;;;-140.72;100.00;52498.41;5034180;28;20042;-69
2022/04/23 00:04:19;;;;;;;1.85;1.20;;;;;;;-140.72;100.00;52528.84;5075931;28;20020;-69
2022/04/23 00:06:44;;;;;;;1.67;1.30;;;;;;;-140.72;100.00;52512.59;5064356;28;20024;-70
2022/04/23 00:09:09;;;;;;;2.05;1.30;;;;;;;-140.72;100.00;52484.19;5035336;28;20057;-69
2022/04/23 00:11:35;;;;;;;2.25;1.77;;;;;;;-140.72;100.00;52482.16;5034538;28;20037;-69
2022/04/23 00:14:01;;;;;;;1.25;1.08;;;;;;;-140.72;100.00;52474.06;5060038;28;20484;-69
2022/04/23 00:16:27;;;;;;;1.50;1.23;;;;;;;-140.72;100.00;52472.03;5021785;28;20025;-71
2022/04/23 00:18:52;;;;;;;2.35;1.73;;;;;;;-140.72;100.00;52482.16;5035208;28;20049;-71
2022/04/23 00:21:20;;;;;;;2.67;1.27;;;;;;;-140.72;100.00;52484.19;5074214;28;20399;-70
2022/04/23 00:23:48;;;;;;;2.50;1.55;;;;;;;-140.72;100.00;52484.19;5051793;28;20458;-69
2022/04/23 00:26:14;;;;;;;2.58;1.45;;;;;;;-140.72;100.00;52476.09;5069554;28;20039;-70
2022/04/23 00:28:39;;;;;;;1.95;1.25;;;;;;;-140.72;100.00;52530.88;5018955;28;20034;-69
2022/04/23 00:31:05;;;;;;;2.92;1.92;;;;;;;-140.72;100.00;52528.84;5075159;28;20030;-72
2022/04/23 00:33:32;;;;;;;2.63;1.55;;;;;;;-140.72;100.00;52504.50;5046285;28;20063;-70
2022/04/23 00:35:57;;;;;;;2.53;1.67;;;;;;;-140.72;100.00;52470.00;5062169;28;20022;-69
2022/04/23 00:38:24;;;;;;;1.33;1.15;;;;;;;-140.72;100.00;52528.84;5090420;28;20044;-71
2022/04/23 00:40:50;;;;;;;2.58;1.48;;;;;;;-140.72;100.00;52553.19;5081648;28;20024;-69
2022/04/23 00:43:35;;;;;;;2.17;1.33;;;;;;;-140.72;100.00;52514.63;5065347;28;20458;-69
2022/04/23 00:46:01;;;;;;;1.02;0.93;;;;;;;-140.72;100.00;52524.78;5005352;28;20057;-72
2022/04/23 00:48:28;;;;;;;4.35;2.55;;;;;;;-140.72;100.00;52516.66;5035130;28;20033;-70
2022/04/23 00:50:57;;;;;;;3.58;2.33;;;;;;;-140.72;100.00;52539.00;5065764;28;20028;-69
2022/04/23 00:53:24;;;;;;;1.83;1.50;;;;;;;-140.72;100.00;52506.53;5023093;28;20043;-69
2022/04/23 00:55:52;;;;;;;2.42;1.50;;;;;;;-140.72;100.00;52492.31;5035266;28;20110;-69
2022/04/23 00:58:20;;;;;;;2.17;1.30;;;;;;;-140.72;100.00;52496.38;5012806;28;20460;-68
2022/04/23 01:00:46;;;;;;;2.13;1.48;;;;;;;-140.72;100.00;52490.28;5006114;28;20057;-69
2022/04/23 01:03:12;;;;;;;2.33;1.73;;;;;;;-140.72;100.00;52504.50;5024066;28;20038;-70
2022/04/23 01:05:44;;;;;;;1.65;1.30;;;;;;;-140.72;100.00;52520.72;4993244;28;20400;-69
2022/04/23 01:08:12;;;;;;;3.95;2.25;;;;;;;-140.72;100.00;52488.25;5059034;28;20041;-69
2022/04/23 01:10:37;;;;;;;2.05;1.60;;;;;;;-140.72;100.00;52502.47;5051119;28;20035;-69
2022/04/23 01:13:03;;;;;;;2.92;2.00;;;;;;;-140.72;100.00;52532.91;5029665;28;20026;-69
2022/04/23 01:15:28;;;;;;;4.43;2.05;;;;;;;-140.72;100.00;52488.25;5028815;28;20053;-69
2022/04/23 01:17:53;;;;;;;1.48;1.10;;;;;;;-140.72;100.00;52472.03;5060867;28;20028;-69
2022/04/23 01:20:19;;;;;;;2.90;1.25;;;;;;;-140.72;100.00;52474.06;5062247;28;20033;-69
2022/04/23 01:22:45;;;;;;;2.65;2.08;;;;;;;-140.72;100.00;52545.06;5034686;28;20022;-69
2022/04/23 01:25:13;;;;;;;3.05;1.98;;;;;;;-140.72;100.00;52467.97;5041479;28;20023;-69
2022/04/23 01:27:40;;;;;;;1.55;1.45;;;;;;;-140.72;100.00;52492.31;5035357;28;20033;-71
2022/04/23 01:30:08;;;;;;;3.40;2.10;;;;;;;-140.72;100.00;52518.69;5024288;28;20030;-69
2022/04/23 01:32:33;;;;;;;2.10;1.58;;;;;;;-140.72;100.00;52488.25;5047753;28;20078;-72
2022/04/23 01:34:59;;;;;;;4.22;2.20;;;;;;;-140.72;100.00;52484.19;5062200;28;20113;-69
2022/04/23 01:37:24;;;;;;;3.25;1.98;;;;;;;-140.72;100.00;52524.78;5005331;28;20329;-69
2022/04/23 01:39:50;;;;;;;2.92;1.48;;;;;;;-140.72;100.00;52496.38;5069945;28;20523;-70
2022/04/23 01:42:18;;;;;;;3.72;2.10;;;;;;;-140.72;100.00;52502.47;5043502;28;20450;-71
2022/04/23 01:44:47;;;;;;;1.92;1.73;;;;;;;-140.72;100.00;52516.66;5019373;28;20025;-69
2022/04/23 01:47:12;;;;;;;1.75;1.27;;;;;;;-140.72;100.00;52504.50;5016629;28;20498;-71
2022/04/23 01:49:38;;;;;;;3.17;1.98;;;;;;;-140.72;100.00;52488.25;5107095;28;20023;-69
2022/04/23 01:52:04;;;;;;;2.47;1.60;;;;;;;-140.72;100.00;52530.88;5039990;28;20039;-70
2022/04/23 01:54:29;;;;;;;4.18;2.92;;;;;;;-140.72;100.00;52500.44;5053262;28;20054;-68
2022/04/23 01:56:59;;;;;;;2.17;1.42;;;;;;;-140.72;100.00;52500.44;5037662;28;20027;-70
2022/04/23 01:59:24;;;;;;;4.93;1.88;;;;;;;-140.72;100.00;52524.78;5095995;28;20488;-69
2022/04/23 02:01:50;;;;;;;3.13;1.73;;;;;;;-140.72;100.00;52516.66;5057167;28;20047;-71
2022/04/23 02:04:16;;;;;;;3.20;2.15;;;;;;;-140.72;100.00;52518.69;5021753;28;20502;-70
2022/04/23 02:06:42;;;;;;;1.88;1.50;;;;;;;-140.72;100.00;52532.91;5048806;28;20019;-71
2022/04/23 02:09:07;;;;;;;3.75;2.35;;;;;;;-140.72;100.00;52500.44;5098012;28;20035;-69
2022/04/23 02:11:32;;;;;;;3.95;1.67;;;;;;;-140.72;100.00;52528.84;5053454;28;20465;-68
2022/04/23 02:13:58;;;;;;;3.35;3.00;;;;;;;-140.72;100.00;52534.94;5076649;28;20140;-69
2022/04/23 02:16:25;;;;;;;4.47;2.05;;;;;;;-140.72;100.00;52498.41;5031059;28;20071;-69
2022/04/23 02:18:50;;;;;;;4.13;2.40;;;;;;;-140.72;100.00;52518.69;5058186;28;20024;-69
2022/04/23 02:21:15;;;;;;;2.05;1.75;;;;;;;-140.72;100.00;52555.22;5053309;28;20040;-69
2022/04/23 02:23:43;;;;;;;3.38;2.58;;;;;;;-140.72;100.00;52494.34;5069452;28;20015;-68
2022/04/23 02:26:08;;;;;;;3.22;2.03;;;;;;;-140.72;100.00;52524.78;5075679;28;20060;-69
2022/04/23 02:28:33;;;;;;;4.22;2.83;;;;;;;-140.72;100.00;52504.50;5051985;28;20483;-68
2022/04/23 02:30:59;;;;;;;2.33;1.75;;;;;;;-140.72;100.00;52516.66;5050987;28;20334;-69
2022/04/23 02:33:24;;;;;;;2.60;1.65;;;;;;;-140.72;100.00;52496.38;5059770;28;20458;-68
2022/04/23 02:35:50;;;;;;;2.97;2.03;;;;;;;-140.72;100.00;52488.25;5006853;28;20468;-68
2022/04/23 02:38:17;;;;;;;3.42;2.47;;;;;;;-140.72;100.00;52545.06;5005292;28;20118;-69
2022/04/23 02:40:45;;;;;;;2.92;2.47;;;;;;;-140.72;100.00;52518.69;5040012;28;20028;-69
2022/04/23 02:43:13;;;;;;;3.40;2.13;;;;;;;-140.72;100.00;52532.91;5097535;28;20023;-69
2022/04/23 02:45:39;;;;;;;2.25;1.83;;;;;;;-140.72;100.00;52510.59;5009825;28;20077;-69
2022/04/23 02:48:05;;;;;;;4.55;2.75;;;;;;;-140.72;100.00;52514.63;5022974;28;20029;-71
2022/04/23 02:50:34;;;;;;;6.82;3.00;;;;;;;-140.72;100.00;52545.06;5063711;28;20160;-69
2022/04/23 02:53:00;;;;;;;2.80;2.47;;;;;;;-140.72;100.00;52524.78;5029330;28;20042;-70
2022/04/23 02:55:28;;;;;;;4.80;2.40;;;;;;;-140.72;100.00;52541.03;5064995;28;20058;-70
2022/04/23 02:57:54;;;;;;;2.92;2.47;;;;;;;-140.72;100.00;52514.63;5050962;28;20079;-68
2022/04/23 03:00:20;;;;;;;4.35;2.90;;;;;;;-140.72;100.00;52551.16;5051358;28;20333;-69
2022/04/23 03:02:47;;;;;;;3.83;1.92;;;;;;;-140.72;100.00;52528.84;5068933;28;20036;-70
2022/04/23 03:05:16;;;;;;;5.57;2.83;;;;;;;-140.72;100.00;52512.59;5016037;28;20432;-69
2022/04/23 03:07:43;;;;;;;4.10;2.07;;;;;;;-140.72;100.00;52547.09;5021546;28;20055;-69
2022/04/23 03:10:10;;;;;;;3.33;1.70;;;;;;;-140.72;100.00;52528.84;5015051;28;20548;-68
2022/04/23 03:12:36;;;;;;;3.13;2.60;;;;;;;-140.72;100.00;52536.97;5051403;28;20095;-70
2022/04/23 03:15:03;;;;;;;2.67;1.98;;;;;;;-140.72;100.00;52559.28;5066846;28;20518;-69
2022/04/23 03:17:29;;;;;;;3.20;2.03;;;;;;;-140.72;100.00;52553.19;5046412;28;20380;-69
2022/04/23 03:19:54;;;;;;;3.35;2.90;;;;;;;-140.72;100.00;52516.66;5035618;28;20026;-69
2022/04/23 03:22:21;;;;;;;5.00;2.78;;;;;;;-140.72;100.00;52555.22;5000554;28;20038;-68
2022/04/23 03:24:46;;;;;;;3.05;2.75;;;;;;;-140.72;100.00;52549.13;5035129;28;20038;-69
2022/04/23 03:27:12;;;;;;;2.70;2.00;;;;;;;-140.72;100.00;52532.91;5100287;28;20026;-70
2022/04/23 03:29:37;;;;;;;3.75;1.83;;;;;;;-140.72;100.00;52551.16;5031539;28;20052;-70
2022/04/23 03:32:03;;;;;;;6.05;3.47;;;;;;;-140.72;100.00;52528.84;5107633;28;20393;-69
2022/04/23 03:34:28;;;;;;;4.95;2.47;;;;;;;-140.72;100.00;52524.78;5028003;28;20047;-68
2022/04/23 03:36:53;;;;;;;2.92;1.95;;;;;;;-140.72;100.00;52508.56;5092343;28;20051;-70
2022/04/23 03:39:19;;;;;;;5.50;3.25;;;;;;;-140.72;100.00;52532.91;5064941;28;20041;-70
2022/04/23 03:41:45;;;;;;;3.58;2.95;;;;;;;-140.72;100.00;52524.78;5020648;28;20026;-70
2022/04/23 03:44:10;;;;;;;3.63;2.97;;;;;;;-140.72;100.00;52502.47;5052851;28;20019;-69
2022/04/23 03:46:35;;;;;;;4.10;2.80;;;;;;;-140.72;100.00;52536.97;5059179;28;20035;-69
2022/04/23 03:49:01;;;;;;;4.47;2.08;;;;;;;-140.72;100.00;52506.53;5051686;28;20035;-68
2022/04/23 03:51:26;;;;;;;4.80;2.95;;;;;;;-140.72;100.00;52522.75;5032907;28;20042;-69
2022/04/23 03:53:52;;;;;;;3.95;3.42;;;;;;;-140.72;100.00;52561.31;5044986;28;20045;-70
2022/04/23 03:56:18;;;;;;;7.32;3.03;;;;;;;-140.72;100.00;52543.03;5053447;28;20022;-69
2022/04/23 03:58:44;;;;;;;3.10;2.28;;;;;;;-140.72;100.00;52565.38;5053815;28;20057;-68
2022/04/23 04:01:09;;;;;;;8.52;3.50;;;;;;;-140.72;100.00;52536.97;5046839;28;20456;-68
2022/04/23 04:03:34;;;;;;;5.70;3.10;;;;;;;-140.72;100.00;52506.53;5036472;28;20056;-71
2022/04/23 04:06:00;;;;;;;3.13;2.40;;;;;;;-140.72;100.00;52541.03;5036154;28;20065;-69
2022/04/23 04:08:25;;;;;;;2.67;2.28;;;;;;;-140.72;100.00;52541.03;5022816;28;20040;-68
2022/04/23 04:10:51;;;;;;;5.88;3.33;;;;;;;-140.72;100.00;52557.25;5043463;28;20126;-70
2022/04/23 04:13:16;;;;;;;4.78;2.97;;;;;;;-140.72;100.00;52532.91;5051265;28;20024;-68
2022/04/23 04:15:45;;;;;;;4.93;4.18;;;;;;;-140.72;100.00;52526.81;5079226;28;20019;-71
2022/04/23 04:18:11;;;;;;;3.05;2.63;;;;;;;-140.72;100.00;52528.84;5043860;28;20461;-69
2022/04/23 04:20:39;;;;;;;4.80;3.17;;;;;;;-140.72;100.00;52534.94;5025370;28;20147;-70
2022/04/23 04:23:05;;;;;;;3.67;3.15;;;;;;;-140.72;100.00;52605.94;5063975;28;20041;-70
2022/04/23 04:25:31;;;;;;;6.30;4.05;;;;;;;-140.72;100.00;52549.13;5019080;28;20050;-69
2022/04/23 04:27:56;;;;;;;6.05;2.35;;;;;;;-140.72;100.00;52536.97;5037053;28;20472;-69
2022/04/23 04:30:22;;;;;;;3.88;2.65;;;;;;;-140.72;100.00;52551.16;5049879;28;20082;-69
2022/04/23 04:32:47;;;;;;;4.10;2.63;;;;;;;-140.72;100.00;52520.72;5050743;28;20027;-70
2022/04/23 04:35:13;;;;;;;5.47;3.80;;;;;;;-140.72;100.00;52573.50;5038329;28;20030;-69
2022/04/23 04:37:39;;;;;;;4.93;2.80;;;;;;;-140.72;100.00;52551.16;5059774;28;20483;-72
2022/04/23 04:40:05;;;;;;;4.75;3.70;;;;;;;-140.72;100.00;52557.25;5050710;28;20118;-69
2022/04/23 04:42:30;;;;;;;5.78;3.13;;;;;;;-140.72;100.00;52516.66;5084398;28;20035;-69
2022/04/23 04:44:56;;;;;;;5.00;4.47;;;;;;;-140.72;100.00;52524.78;5048147;28;20041;-69
2022/04/23 04:47:21;;;;;;;3.47;2.75;;;;;;;-140.72;100.00;52561.31;5021652;28;20033;-69
2022/04/23 04:49:46;;;;;;;5.72;3.72;;;;;;;-140.72;100.00;52545.06;5007420;28;20029;-69
2022/04/23 04:52:12;;;;;;;4.90;3.42;;;;;;;-140.72;100.00;52539.00;5003004;28;20030;-69
2022/04/23 04:54:38;;;;;;;4.05;3.60;;;;;;;-140.72;100.00;52573.50;4988023;28;20442;-69
2022/04/23 04:57:03;;;;;;;5.70;3.45;;;;;;;-140.72;100.00;52551.16;4987664;28;20388;-72
2022/04/23 04:59:33;;;;;;;4.82;3.38;;;;;;;-140.72;100.00;52561.31;4987704;28;20038;-69
2022/04/23 05:01:59;;;;;;;7.40;3.72;;;;;;;-140.72;100.00;52520.72;4987714;28;20046;-69
2022/04/23 05:04:25;;;;;;;3.55;2.40;;;;;;;-140.72;100.00;52549.13;4999356;28;20053;-70
2022/04/23 05:06:50;;;;;;;3.47;2.22;;;;;;;-140.72;100.00;52567.41;5003981;28;20105;-69
2022/04/23 05:09:16;;;;;;;6.30;4.43;;;;;;;-140.72;100.00;52561.31;4996056;28;20042;-69
2022/04/23 05:11:42;;;;;;;4.40;3.28;;;;;;;-140.72;100.00;52539.00;4999950;28;20109;-70
2022/04/23 05:14:08;;;;;;;5.68;5.00;;;;;;;-140.72;100.00;52530.88;4998366;28;20109;-69
2022/04/23 05:16:33;;;;;;;5.18;3.72;;;;;;;-140.72;100.00;52551.16;4991826;28;20030;-70
2022/04/23 05:18:58;;;;;;;5.70;3.28;;;;;;;-140.72;100.00;52530.88;4992036;28;20087;-69
2022/04/23 05:21:24;;;;;;;6.75;4.22;;;;;;;-140.72;100.00;52557.25;4995925;28;20033;-69
2022/04/23 05:23:49;;;;;;;8.10;3.75;;;;;;;-140.72;100.00;52506.53;4998336;28;20049;-69
2022/04/23 05:26:14;;;;;;;5.78;3.47;;;;;;;-140.72;100.00;52565.38;4997840;28;20485;-70
2022/04/23 05:28:41;;;;;;;5.15;3.28;;;;;;;-140.72;100.00;52526.81;4995202;28;20039;-71
2022/04/23 05:31:07;;;;;;;4.88;3.92;;;;;;;-140.72;100.00;52577.53;5002618;28;20029;-72
2022/04/23 05:33:33;;;;;;;5.57;3.88;;;;;;;-140.72;100.00;52555.22;4996598;28;20026;-68
2022/04/23 05:35:58;;;;;;;8.52;4.93;;;;;;;-140.72;100.00;52541.03;4997292;28;20434;-70
2022/04/23 05:38:24;;;;;;;6.25;2.83;;;;;;;-140.72;100.00;52528.84;5002773;28;20037;-70
2022/04/23 05:40:50;;;;;;;9.45;4.93;;;;;;;-140.72;100.00;52549.13;4995573;28;20041;-68
2022/04/23 05:43:16;;;;;;;6.75;3.55;;;;;;;-140.72;100.00;52518.69;4989584;28;20417;-70
2022/04/23 05:45:43;;;;;;;6.63;3.38;;;;;;;-140.72;100.00;52549.13;4995818;28;20516;-70
2022/04/23 05:48:09;;;;;;;6.60;5.82;;;;;;;-140.72;100.00;52520.72;4993879;28;20022;-70
2022/04/23 05:50:34;;;;;;;5.82;3.83;;;;;;;-140.72;100.00;52526.81;4994754;28;20507;-70
2022/04/23 05:52:59;;;;;;;4.90;3.85;;;;;;;-140.72;100.00;52514.63;4999361;28;20037;-71
2022/04/23 05:55:25;;;;;;;7.97;3.72;;;;;;;-140.72;100.00;52498.41;4996672;28;20434;-68
2022/04/23 05:57:50;;;;;;;7.35;4.55;;;;;;;-140.72;100.00;52514.63;4988666;28;20116;-67
2022/04/23 06:00:16;;;;;;;5.80;4.32;;;;;;;-140.72;100.00;52512.59;4998006;28;20515;-68
2022/04/23 06:02:41;;;;;;;6.90;4.40;;;;;;;-140.72;100.00;52549.13;5029471;28;20051;-71
2022/04/23 06:05:07;;;;;;;5.47;4.47;;;;;;;-140.72;100.00;52528.84;5087582;28;20474;-70
2022/04/23 06:07:33;;;;;;;7.90;4.88;;;;;;;-140.72;100.00;52518.69;5087663;28;20024;-69
2022/04/23 06:09:59;;;;;;;4.28;3.47;;;;;;;-140.72;100.00;52453.75;5085766;28;20024;-68
2022/04/23 06:12:25;;;;;;;7.85;4.05;;;;;;;-140.72;100.00;52510.59;5042750;28;20028;-70
2022/04/23 06:14:50;;;;;;;7.40;4.13;;;;;;;-140.72;100.00;52530.88;5072768;28;20020;-70
2022/04/23 06:17:22;;;;;;;5.32;3.70;;;;;;;-140.72;100.00;52508.56;5057098;28;20089;-69
2022/04/23 06:19:47;;;;;;;6.80;4.53;;;;;;;-140.72;100.00;52516.66;5055691;28;20059;-70
2022/04/23 06:22:12;;;;;;;5.70;4.18;;;;;;;-140.72;100.00;52467.97;5041682;28;20134;-70
2022/04/23 06:24:38;;;;;;;7.70;4.85;;;;;;;-140.72;100.00;52510.59;5013995;28;20044;-71
2022/04/23 06:27:03;;;;;;;8.45;4.82;;;;;;;-140.72;100.00;52524.78;5040883;28;20023;-71
2022/04/23 06:29:29;;;;;;;7.28;3.47;;;;;;;-140.72;100.00;52516.66;5032663;28;20056;-71
2022/04/23 06:31:54;;;;;;;5.18;4.00;;;;;;;-140.72;100.00;52543.03;5045037;28;20051;-71
2022/04/23 06:34:20;;;;;;;5.47;3.53;;;;;;;-140.72;100.00;52482.16;5087569;28;20448;-71
2022/04/23 06:36:46;;;;;;;6.80;4.28;;;;;;;-140.72;100.00;52506.53;5029592;28;20032;-69
2022/04/23 06:39:11;;;;;;;6.18;4.78;;;;;;;-140.72;100.00;52476.09;5032559;28;20029;-72
2022/04/23 06:41:37;;;;;;;4.80;4.10;;;;;;;-140.72;100.00;52532.91;5027941;28;20488;-70
2022/04/23 06:44:03;;;;;;;6.30;4.03;;;;;;;-140.72;100.00;52500.44;5037109;28;20042;-71
2022/04/23 06:46:28;;;;;;;6.40;4.38;;;;;;;-140.72;100.00;52532.91;5020872;28;20483;-70
2022/04/23 06:48:54;;;;;;;5.85;3.90;;;;;;;-140.72;100.00;52504.50;5003205;28;20108;-72
2022/04/23 06:51:19;;;;;;;6.45;5.25;;;;;;;-140.72;100.00;52520.72;5013090;28;20035;-72
2022/04/23 06:53:45;;;;;;;5.65;4.90;;;;;;;-140.72;100.00;52480.16;5058316;28;20482;-69
2022/04/23 06:56:10;;;;;;;5.85;4.35;;;;;;;-140.72;100.00;52508.56;5089585;28;20035;-68
2022/04/23 06:58:35;;;;;;;4.72;3.55;;;;;;;-140.72;100.00;52470.00;5088948;28;20043;-70
2022/04/23 07:01:01;;;;;;;5.65;4.07;;;;;;;-140.72;100.00;52498.41;5062138;28;20039;-70
2022/04/23 07:03:27;;;;;;;5.53;4.38;;;;;;;-140.72;100.00;52520.72;4982414;28;20050;-71
2022/04/23 07:05:52;;;;;;;5.00;4.13;;;;;;;-140.72;100.00;52476.09;4994386;28;20360;-71
2022/04/23 07:08:18;;;;;;;3.72;3.10;;;;;;;-140.72;100.00;52482.16;5008189;28;20084;-71
2022/04/23 07:10:46;;;;;;;6.78;4.28;;;;;;;-140.72;100.00;52480.16;5008815;28;20387;-70
2022/04/23 07:13:12;;;;;;;4.65;3.08;;;;;;;-140.72;100.00;52514.63;4999685;28;20053;-71
2022/04/23 07:15:41;;;;;;;4.40;3.22;;;;;;;-140.72;100.00;52492.31;4989306;28;20480;-70
2022/04/23 07:18:07;;;;;;;3.97;3.22;;;;;;;-140.72;100.00;52486.22;4998091;28;20048;-70
2022/04/23 07:20:33;;;;;;;3.85;3.35;;;;;;;-140.72;100.00;52506.53;5009775;28;20041;-71
2022/04/23 07:25:43;;;;;;;5.93;3.63;;;;;;;-140.72;100.00;52445.66;5048591;28;20099;-69
2022/04/23 07:28:08;;;;;;;3.88;2.80;;;;;;;-140.72;100.00;52484.19;5053037;28;20464;-69
2022/04/23 07:30:35;;;;;;;3.35;2.95;;;;;;;-140.72;100.00;52478.13;5053043;28;20064;-69
2022/04/23 07:33:00;;;;;;;4.85;4.13;;;;;;;-140.72;100.00;52476.09;5079552;28;20044;-71
2022/04/23 07:38:14;;;;;;;4.50;3.22;;;;;;;-140.72;100.00;52423.31;5032067;28;20045;-69
2022/04/23 07:40:43;;;;;;;;;;;;;;;-140.72;100.00;52443.63;5037036;28;20371;-69
2022/04/23 07:43:10;;;;;;;5.45;2.78;;;;;;;-140.72;100.00;52463.91;5017678;28;19917;-70
2022/04/23 07:45:39;;;;;;;4.30;3.25;;;;;;;-140.72;100.00;52482.16;5022959;28;20030;-70
2022/04/23 07:48:06;;;;;;;4.28;2.60;;;;;;;-140.72;100.00;52480.16;5042704;28;20030;-70
2022/04/23 07:50:35;;;;;;;12.68;5.50;;;;;;;-140.72;100.00;52455.78;5067743;28;20043;-70
2022/04/23 07:53:00;;;;;;;5.97;4.15;;;;;;;-140.72;100.00;52447.69;5070892;28;20441;-70
2022/04/23 07:55:29;;;;;;;4.65;3.33;;;;;;;-140.72;100.00;52429.41;5070857;28;20118;-70
2022/04/23 07:57:57;;;;;;;6.72;3.58;;;;;;;-140.72;100.00;52486.22;5052233;28;20610;-70
2022/04/23 08:00:22;;;;;;;4.57;3.10;;;;;;;-140.72;100.00;52445.66;5050140;28;20135;-70
2022/04/23 08:02:47;;;;;;;8.00;3.92;;;;;;;-140.72;100.00;52455.78;5088830;28;20114;-70
2022/04/23 08:05:13;;;;;;;4.57;2.28;;;;;;;-140.72;100.00;52429.41;5026194;28;20052;-70
2022/04/23 08:07:44;;;;;;;4.75;3.88;;;;;;;-140.72;100.00;52467.97;5049029;28;20147;-69
2022/04/23 08:10:10;;;;;;;5.03;3.17;;;;;;;-140.72;100.00;52415.22;5036715;28;20022;-70
2022/04/23 08:12:36;;;;;;;5.80;4.07;;;;;;;-140.72;100.00;52429.41;5026866;28;20112;-70
2022/04/23 08:15:02;;;;;;;5.43;4.28;;;;;;;-140.72;100.00;52394.91;5062755;28;20480;-70
2022/04/23 08:17:28;;;;;;;5.00;4.00;;;;;;;-140.72;100.00;52451.72;5057932;28;20031;-69
2022/04/23 08:19:53;;;;;;;5.07;3.25;;;;;;;-140.72;100.00;52415.22;5049450;28;20076;-71
2022/04/23 08:22:18;;;;;;;4.18;3.47;;;;;;;-140.72;100.00;52413.19;5080069;28;20117;-69
2022/04/23 08:24:44;;;;;;;7.35;4.90;;;;;;;-140.72;100.00;52346.22;5054122;28;20069;-70
2022/04/23 08:27:09;;;;;;;3.58;2.92;;;;;;;-140.72;100.00;52425.34;5057072;28;20104;-70
2022/04/23 08:32:19;;;;;;;4.78;2.97;;;;;;;-140.72;100.00;52427.38;5039611;28;20040;-71
2022/04/23 08:34:45;;;;;;;4.85;3.47;;;;;;;-140.72;100.00;52425.34;5059441;28;20112;-70
2022/04/23 08:37:12;;;;;;;5.50;3.78;;;;;;;-140.72;100.00;52376.66;5050084;28;20447;-70
2022/04/23 08:39:37;;;;;;;4.82;3.45;;;;;;;-140.72;100.00;52390.84;5092134;28;20259;-71
2022/04/23 08:42:06;;;;;;;3.78;3.03;;;;;;;-140.72;100.00;52366.50;5030447;28;20447;-69
2022/04/23 08:44:32;;;;;;;6.30;4.15;;;;;;;-140.72;100.00;52360.44;5039950;28;20376;-69
2022/04/23 08:46:57;;;;;;;3.90;2.75;;;;;;;-140.72;100.00;52334.03;5060394;28;20050;-70
2022/04/23 08:49:29;;;;;;;4.75;3.50;;;;;;;-140.72;100.00;52336.06;5068134;28;20166;-71
2022/04/23 08:52:01;;;;;;;4.25;3.13;;;;;;;-140.72;100.00;52307.66;5066745;28;20033;-70
2022/04/23 08:54:28;;;;;;;4.85;3.05;;;;;;;-140.72;100.00;52301.59;5038533;28;20061;-70
2022/04/23 08:56:53;;;;;;;4.55;3.78;;;;;;;-140.72;100.00;52309.69;5064238;28;20034;-69
2022/04/23 08:59:20;;;;;;;3.13;2.45;;;;;;;-140.72;100.00;52315.78;5053268;28;20163;-70
2022/04/23 09:01:46;;;;;;;4.97;2.75;;;;;;;-140.72;100.00;52267.09;5067138;28;20104;-69
2022/04/23 09:04:11;;;;;;;4.20;3.30;;;;;;;-140.72;100.00;52309.69;5024224;28;20029;-70
2022/04/23 09:06:46;;;;;;;6.03;3.65;;;;;;;-140.72;100.00;52275.19;5054730;28;20059;-71
2022/04/23 09:09:20;;;;;;;4.38;3.30;;;;;;;-140.72;100.00;52265.06;5029747;28;20022;-70
2022/04/23 09:11:55;;;;;;;3.85;2.95;;;;;;;-140.72;100.00;52232.59;5025453;28;20046;-70
2022/04/23 09:14:29;;;;;;;4.68;2.95;;;;;;;-140.72;100.00;52295.50;5046877;28;20057;-70
2022/04/23 09:25:14;;;;;;;6.82;4.28;;;;;;;-140.72;100.00;52149.41;5053859;28;20072;-68
2022/04/23 09:27:42;;;;;;;4.68;3.65;;;;;;;-140.72;100.00;52222.44;5066259;28;20528;-68
2022/04/23 09:30:09;;;;;;;3.90;2.92;;;;;;;-140.72;100.00;52261.00;5060198;28;20033;-71
2022/04/23 09:32:35;;;;;;;4.85;2.78;;;;;;;-140.72;100.00;52248.81;5035563;28;20030;-70
2022/04/23 09:35:05;;;;;;;4.57;3.17;;;;;;;-140.72;100.00;52161.56;5046230;28;20025;-69
2022/04/23 09:40:22;;;;;;;5.95;3.67;;;;;;;-140.72;100.00;52196.06;5030975;28;20118;-71
2022/04/23 09:43:05;;;;;;;4.20;3.00;;;;;;;-140.72;100.00;52263.03;5008903;28;20094;-71
2022/04/23 09:45:32;;;;;;;5.68;3.08;;;;;;;-140.72;100.00;52269.13;5051913;28;20397;-69
2022/04/23 09:48:03;;;;;;;7.45;3.38;;;;;;;-140.72;100.00;52224.47;5092783;28;20020;-70
2022/04/23 09:50:38;;;;;;;4.30;3.53;;;;;;;-140.72;100.00;52273.19;5058710;28;20063;-69
2022/04/23 09:53:14;;;;;;;3.92;2.58;;;;;;;-140.72;100.00;52291.44;5034140;28;20129;-69
2022/04/23 09:55:39;;;;;;;6.53;3.78;;;;;;;-140.72;100.00;52297.53;5023425;28;20104;-70
2022/04/23 09:58:09;;;;;;;6.45;3.60;;;;;;;-140.72;100.00;52293.47;5040218;28;20034;-71
2022/04/23 10:00:40;;;;;;;6.00;3.33;;;;;;;-140.72;100.00;52273.19;5040528;28;20476;-68
2022/04/23 10:03:06;;;;;;;5.38;3.75;;;;;;;-140.72;100.00;52291.44;5047442;28;20478;-69
2022/04/23 10:05:37;;;;;;;5.47;3.33;;;;;;;-140.72;100.00;52263.03;5019907;28;20025;-69
2022/04/23 10:08:05;;;;;;;5.53;3.40;;;;;;;-140.72;100.00;52301.59;5016312;28;20062;-69
2022/04/23 10:10:35;;;;;;;5.25;3.10;;;;;;;-140.72;100.00;52281.28;5047276;28;20393;-71
2022/04/23 10:13:03;;;;;;;5.07;3.03;;;;;;;-140.72;100.00;52254.91;5062607;28;20642;-70
2022/04/23 10:15:29;;;;;;;4.85;3.72;;;;;;;-140.72;100.00;52263.03;5065471;28;20109;-70
2022/04/23 10:17:56;;;;;;;4.90;3.28;;;;;;;-140.72;100.00;52303.59;5056686;28;20026;-70
2022/04/23 10:20:22;;;;;;;4.63;2.78;;;;;;;-140.72;100.00;52289.41;5068105;28;20499;-69
2022/04/23 10:23:21;;;;;;;5.78;2.60;;;;;;;-140.72;100.00;52261.00;5035656;28;20026;-69
2022/04/23 10:26:13;;;;;;;4.43;3.63;;;;;;;-140.72;100.00;52254.91;5029504;28;20026;-69
2022/04/23 10:28:44;;;;;;;5.22;3.30;;;;;;;-140.72;100.00;52228.53;5024154;28;20042;-72
2022/04/23 10:31:16;;;;;;;4.18;2.83;;;;;;;-140.72;100.00;52118.97;5046606;28;20033;-70
2022/04/23 10:33:46;;;;;;;5.65;3.55;;;;;;;-140.72;100.00;52090.56;5066389;28;20026;-71
2022/04/23 10:36:13;;;;;;;4.65;3.33;;;;;;;-140.72;100.00;52123.03;5051393;28;20037;-68
2022/04/23 10:38:44;;;;;;;6.75;4.50;;;;;;;-140.72;100.00;52228.53;5058897;28;20027;-69
2022/04/23 10:41:13;;;;;;;5.43;3.53;;;;;;;-140.72;100.00;52196.06;5061752;28;20030;-69
2022/04/23 10:43:50;;;;;;;3.92;2.63;;;;;;;-140.72;100.00;52169.69;5049445;28;20042;-70
2022/04/23 10:46:37;;;;;;;5.90;3.20;;;;;;;-140.72;100.00;52019.56;5035609;28;20160;-70
2022/04/23 10:49:21;;;;;;;3.90;2.90;;;;;;;-140.72;100.00;51954.63;5045859;28;20068;-69
2022/04/23 10:51:57;;;;;;;4.47;3.03;;;;;;;-140.72;100.00;52143.31;5051271;28;20103;-69
2022/04/23 10:54:56;;;;;;;6.43;3.47;;;;;;;-140.72;100.00;52078.38;5052771;28;20158;-69
2022/04/23 10:57:23;;;;;;;6.10;4.43;;;;;;;-140.72;100.00;52151.44;5020288;28;20035;-70
2022/04/23 10:59:53;;;;;;;4.25;3.20;;;;;;;-140.72;100.00;52058.09;5052877;28;20353;-70
2022/04/23 11:02:19;;;;;;;4.20;3.13;;;;;;;-140.72;100.00;51968.81;5057755;28;20489;-70
2022/04/23 11:13:27;;;;;;;4.22;3.38;;;;;;;-140.72;100.00;52056.06;5050198;28;20437;-70
2022/04/23 11:16:16;;;;;;;4.65;3.08;;;;;;;-140.72;100.00;52025.63;5041305;28;20024;-70
2022/04/23 11:18:43;;;;;;;6.90;3.85;;;;;;;-140.72;100.00;52019.56;5093146;28;20027;-68
2022/04/23 11:21:17;;;;;;;4.95;3.85;;;;;;;-140.72;100.00;52153.47;5112382;28;20034;-69
2022/04/23 11:23:45;;;;;;;5.22;3.50;;;;;;;-140.72;100.00;52092.59;5077785;28;20027;-69
2022/04/23 11:26:14;;;;;;;5.40;3.40;;;;;;;-140.72;100.00;52139.25;5040601;28;20389;-69
2022/04/23 11:28:41;;;;;;;6.18;3.92;;;;;;;-140.72;100.00;52189.97;5017441;28;20043;-70
2022/04/23 11:31:12;;;;;;;4.72;3.53;;;;;;;-140.72;100.00;52202.16;5050521;28;20032;-71
2022/04/23 11:33:48;;;;;;;4.20;3.30;;;;;;;-140.72;100.00;52218.38;5052310;28;20061;-71
2022/04/23 11:36:13;;;;;;;5.90;3.08;;;;;;;-140.72;100.00;52183.91;5041993;28;20430;-69
2022/04/23 11:38:41;;;;;;;9.90;3.75;;;;;;;-140.72;100.00;52017.53;5047862;28;20028;-69